Time;durP1;ratioP1;P1;durP2;ratioP2;P2;SDS_P1;SDS_P2;PMS_P1;PMS_P2;Temp;Humidity;BMP_temperature;BMP_pressure;BME280_temperature;BME280_humidity;BME280_pressure;Samples;Min_cycle;Max_cycle;Signal;HPM_P1;HPM_P2
2022/05/12 00:00:49;;;;;;;8.82;4.97;;;;;;;;;;4375984;32;20674;-85
2022/05/12 00:03:17;;;;;;;3.37;2.92;;;;;;;;;;4375799;32;20265;-84
2022/05/12 00:05:46;;;;;;;3.40;3.08;;;;;;;;;;4375415;32;20246;-84
2022/05/12 00:08:12;;;;;;;9.27;3.15;;;;;;;;;;4375464;32;20662;-84
2022/05/12 00:10:40;;;;;;;7.50;3.78;;;;;;;;;;4375338;32;20233;-84
2022/05/12 00:13:06;;;;;;;8.15;6.12;;;;;;;;;;4375003;32;20571;-84
2022/05/12 00:15:34;;;;;;;12.55;9.75;;;;;;;;;;4375298;32;20550;-84
2022/05/12 00:18:04;;;;;;;9.40;7.05;;;;;;;;;;4375331;32;20666;-84
2022/05/12 00:20:32;;;;;;;8.77;4.90;;;;;;;;;;4375731;32;20632;-85
2022/05/12 00:23:14;;;;;;;5.12;4.37;;;;;;;;;;4362524;32;20600;-85
2022/05/12 00:25:42;;;;;;;4.78;3.58;;;;;;;;;;4361906;32;20614;-84
2022/05/12 00:28:08;;;;;;;6.05;4.72;;;;;;;;;;4375363;32;20658;-84
2022/05/12 00:30:34;;;;;;;7.95;4.60;;;;;;;;;;4375446;32;20297;-86
2022/05/12 00:33:01;;;;;;;8.07;4.72;;;;;;;;;;4375616;32;20470;-84
2022/05/12 00:35:27;;;;;;;7.82;5.12;;;;;;;;;;4375642;32;20567;-85
2022/05/12 00:37:53;;;;;;;8.93;4.12;;;;;;;;;;4375396;32;20232;-86
2022/05/12 00:40:18;;;;;;;5.00;3.58;;;;;;;;;;4375443;32;20244;-85
2022/05/12 00:43:02;;;;;;;4.80;3.53;;;;;;;;;;4375385;32;20295;-85
2022/05/12 00:45:31;;;;;;;5.75;3.83;;;;;;;;;;4361883;32;20501;-84
2022/05/12 00:47:58;;;;;;;6.85;4.40;;;;;;;;;;4361680;32;20589;-85
2022/05/12 00:50:30;;;;;;;4.37;3.35;;;;;;;;;;4375089;32;20784;-85
2022/05/12 00:52:59;;;;;;;9.07;4.05;;;;;;;;;;4375639;32;20539;-83
2022/05/12 00:55:31;;;;;;;5.72;3.55;;;;;;;;;;4374737;32;20686;-84
2022/05/12 00:58:00;;;;;;;4.55;3.40;;;;;;;;;;4375084;32;20657;-84
2022/05/12 01:00:27;;;;;;;3.78;3.05;;;;;;;;;;4375026;32;20575;-84
2022/05/12 01:02:57;;;;;;;5.78;3.30;;;;;;;;;;4375000;32;20602;-83
2022/05/12 01:05:25;;;;;;;6.55;3.72;;;;;;;;;;4375104;32;20576;-84
2022/05/12 01:07:55;;;;;;;6.00;2.80;;;;;;;;;;4374832;32;20557;-84
2022/05/12 01:10:21;;;;;;;14.73;4.00;;;;;;;;;;4375208;32;20636;-83
2022/05/12 01:12:49;;;;;;;4.95;3.72;;;;;;;;;;4375306;32;20190;-84
2022/05/12 01:15:17;;;;;;;11.63;4.57;;;;;;;;;;4375053;32;20623;-84
2022/05/12 01:17:44;;;;;;;7.55;5.15;;;;;;;;;;4374748;32;20682;-86
2022/05/12 01:20:12;;;;;;;11.85;6.12;;;;;;;;;;4374869;32;20650;-85
2022/05/12 01:22:40;;;;;;;11.45;6.45;;;;;;;;;;4374985;32;20646;-85
2022/05/12 01:25:28;;;;;;;7.97;5.43;;;;;;;;;;4374947;32;20675;-86
2022/05/12 01:27:53;;;;;;;15.43;5.35;;;;;;;;;;4375126;32;20766;-84
2022/05/12 01:30:21;;;;;;;7.20;4.72;;;;;;;;;;4376728;32;20284;-85
2022/05/12 01:32:48;;;;;;;8.10;5.35;;;;;;;;;;4378087;32;20564;-84
2022/05/12 01:35:16;;;;;;;6.43;4.30;;;;;;;;;;4377744;32;20653;-83
2022/05/12 01:37:43;;;;;;;6.57;4.03;;;;;;;;;;4378079;32;20592;-85
2022/05/12 01:40:11;;;;;;;6.15;4.43;;;;;;;;;;4377867;32;20490;-86
2022/05/12 01:42:37;;;;;;;8.65;4.07;;;;;;;;;;4364566;32;20548;-85
2022/05/12 01:45:06;;;;;;;6.00;4.40;;;;;;;;;;4377885;32;20278;-87
2022/05/12 01:47:32;;;;;;;8.57;3.58;;;;;;;;;;4377536;32;20592;-84
2022/05/12 01:49:58;;;;;;;3.90;3.47;;;;;;;;;;4364222;32;20600;-86
2022/05/12 01:52:24;;;;;;;5.22;4.45;;;;;;;;;;4377663;32;20332;-84
2022/05/12 01:54:50;;;;;;;4.95;3.70;;;;;;;;;;4378997;32;20228;-88
2022/05/12 01:57:16;;;;;;;4.97;3.70;;;;;;;;;;4382140;32;20498;-84
2022/05/12 01:59:42;;;;;;;4.47;3.83;;;;;;;;;;4378318;32;20566;-84
2022/05/12 02:02:08;;;;;;;4.53;3.33;;;;;;;;;;4377884;32;20217;-85
2022/05/12 02:04:34;;;;;;;7.68;3.67;;;;;;;;;;4363804;32;20293;-85
2022/05/12 02:06:59;;;;;;;6.90;3.60;;;;;;;;;;4351988;32;20295;-84
2022/05/12 02:09:25;;;;;;;7.83;4.03;;;;;;;;;;4363880;32;20587;-85
2022/05/12 02:11:51;;;;;;;6.28;4.12;;;;;;;;;;4377432;32;20317;-84
2022/05/12 02:14:17;;;;;;;4.50;3.63;;;;;;;;;;4377845;32;20209;-84
2022/05/12 02:16:43;;;;;;;6.53;3.95;;;;;;;;;;4377390;32;20222;-85
2022/05/12 02:19:11;;;;;;;5.87;3.40;;;;;;;;;;4377550;32;20578;-84
2022/05/12 02:21:37;;;;;;;4.90;3.00;;;;;;;;;;4377299;32;20574;-85
2022/05/12 02:24:04;;;;;;;7.35;3.35;;;;;;;;;;4377379;32;20572;-86
2022/05/12 02:26:30;;;;;;;7.95;3.20;;;;;;;;;;4377030;32;20654;-85
2022/05/12 02:28:56;;;;;;;5.37;3.63;;;;;;;;;;4377449;32;20191;-86
2022/05/12 02:31:22;;;;;;;3.43;2.90;;;;;;;;;;4377083;32;20240;-86
2022/05/12 02:33:48;;;;;;;5.97;3.28;;;;;;;;;;4376978;32;20577;-84
2022/05/12 02:36:14;;;;;;;3.92;3.17;;;;;;;;;;4376956;32;20684;-86
2022/05/12 02:38:40;;;;;;;5.45;3.85;;;;;;;;;;4376990;32;20225;-85
2022/05/12 02:41:06;;;;;;;4.73;3.43;;;;;;;;;;4362946;32;20252;-84
2022/05/12 02:43:32;;;;;;;4.90;3.47;;;;;;;;;;4377417;32;20673;-89
2022/05/12 02:46:06;;;;;;;5.17;3.60;;;;;;;;;;4377058;32;20221;-83
2022/05/12 02:48:35;;;;;;;3.90;3.50;;;;;;;;;;4377052;32;20607;-84
2022/05/12 02:51:02;;;;;;;4.53;3.17;;;;;;;;;;4376975;32;20673;-83
2022/05/12 02:53:28;;;;;;;4.37;2.93;;;;;;;;;;4377101;32;20580;-85
2022/05/12 02:55:55;;;;;;;6.40;3.30;;;;;;;;;;4376824;32;20677;-84
2022/05/12 02:58:21;;;;;;;5.03;3.77;;;;;;;;;;4376294;32;20587;-85
2022/05/12 03:00:48;;;;;;;4.43;3.40;;;;;;;;;;4363092;32;20535;-87
2022/05/12 03:03:14;;;;;;;6.07;4.37;;;;;;;;;;4362978;32;20753;-84
2022/05/12 03:05:40;;;;;;;5.30;4.03;;;;;;;;;;4376837;32;20605;-84
2022/05/12 03:08:07;;;;;;;7.53;3.73;;;;;;;;;;4376667;32;20672;-84
2022/05/12 03:10:34;;;;;;;10.40;3.60;;;;;;;;;;4376540;32;20559;-84
2022/05/12 03:13:00;;;;;;;5.63;4.13;;;;;;;;;;4377077;32;20615;-84
2022/05/12 03:15:26;;;;;;;5.15;3.87;;;;;;;;;;4377019;32;20221;-85
2022/05/12 03:17:54;;;;;;;4.97;3.93;;;;;;;;;;4377141;32;20321;-86
2022/05/12 03:20:22;;;;;;;7.62;3.92;;;;;;;;;;4377058;32;20242;-86
2022/05/12 03:22:48;;;;;;;5.85;4.20;;;;;;;;;;4376904;32;20776;-87
2022/05/12 03:25:16;;;;;;;7.53;4.63;;;;;;;;;;4376740;32;20281;-85
2022/05/12 03:27:43;;;;;;;7.70;4.30;;;;;;;;;;4376193;32;20702;-84
2022/05/12 03:30:14;;;;;;;7.57;4.65;;;;;;;;;;4376405;32;20244;-83
2022/05/12 03:32:40;;;;;;;4.40;3.83;;;;;;;;;;4376399;32;20624;-85
2022/05/12 03:35:07;;;;;;;4.90;4.10;;;;;;;;;;4376121;32;20191;-85
2022/05/12 03:37:33;;;;;;;8.63;4.07;;;;;;;;;;4376337;32;20651;-84
2022/05/12 03:39:59;;;;;;;10.18;4.20;;;;;;;;;;4376027;32;20256;-84
2022/05/12 03:42:25;;;;;;;13.80;5.20;;;;;;;;;;4376413;32;20612;-87
2022/05/12 03:44:51;;;;;;;7.30;5.10;;;;;;;;;;4362424;32;20290;-85
2022/05/12 03:47:20;;;;;;;9.98;4.37;;;;;;;;;;4362804;32;20620;-85
2022/05/12 03:49:48;;;;;;;6.47;4.67;;;;;;;;;;4376302;32;20607;-85
2022/05/12 03:52:15;;;;;;;6.67;5.43;;;;;;;;;;4375667;32;20824;-85
2022/05/12 03:54:41;;;;;;;15.70;5.90;;;;;;;;;;4376236;32;20656;-86
2022/05/12 03:57:07;;;;;;;9.60;6.13;;;;;;;;;;4363618;32;20619;-84
2022/05/12 03:59:34;;;;;;;12.70;5.77;;;;;;;;;;4376554;32;20225;-84
2022/05/12 04:02:00;;;;;;;8.93;5.43;;;;;;;;;;4363436;32;20560;-85
2022/05/12 04:04:26;;;;;;;8.95;5.22;;;;;;;;;;4379290;32;20726;-85
2022/05/12 04:06:52;;;;;;;18.00;14.18;;;;;;;;;;4388456;32;20567;-84
2022/05/12 04:09:19;;;;;;;21.47;15.57;;;;;;;;;;4388000;32;20528;-84
2022/05/12 04:11:46;;;;;;;10.23;8.10;;;;;;;;;;4384076;32;20155;-85
2022/05/12 04:14:11;;;;;;;9.47;7.13;;;;;;;;;;4378707;32;20203;-84
2022/05/12 04:16:38;;;;;;;12.98;8.23;;;;;;;;;;4400349;27;20303;-54
2022/05/12 04:19:06;;;;;;;9.77;7.53;;;;;;;;;;4387824;32;20300;-54
2022/05/12 04:21:37;;;;;;;14.37;7.13;;;;;;;;;;4387884;32;20287;-53
2022/05/12 04:24:06;;;;;;;9.23;4.80;;;;;;;;;;4387810;32;20210;-54
2022/05/12 04:26:34;;;;;;;5.17;4.63;;;;;;;;;;4372919;32;20214;-54
2022/05/12 04:28:59;;;;;;;13.70;5.60;;;;;;;;;;4373102;32;20279;-54
2022/05/12 04:31:25;;;;;;;7.10;4.80;;;;;;;;;;4373609;32;20229;-54
2022/05/12 04:36:36;;;;;;;12.43;4.93;;;;;;;;;;4387589;32;20229;-54
2022/05/12 04:39:03;;;;;;;6.07;4.60;;;;;;;;;;4387408;32;20224;-53
2022/05/12 04:41:28;;;;;;;13.63;4.17;;;;;;;;;;4387364;32;20222;-53
2022/05/12 04:43:54;;;;;;;10.67;4.97;;;;;;;;;;4387694;32;20571;-54
2022/05/12 04:46:20;;;;;;;6.53;5.67;;;;;;;;;;4387408;32;20255;-54
2022/05/12 04:48:46;;;;;;;8.33;6.27;;;;;;;;;;4387141;32;20615;-54
2022/05/12 04:51:11;;;;;;;8.88;5.93;;;;;;;;;;4386520;32;20226;-55
2022/05/12 04:53:37;;;;;;;8.85;6.85;;;;;;;;;;4387954;32;20594;-54
2022/05/12 04:56:03;;;;;;;12.27;5.87;;;;;;;;;;4388249;32;20312;-55
2022/05/12 04:58:28;;;;;;;8.93;5.70;;;;;;;;;;4381266;32;20793;-55
2022/05/12 05:00:55;;;;;;;12.80;5.30;;;;;;;;;;4372305;32;20257;-54
2022/05/12 05:03:20;;;;;;;14.80;6.50;;;;;;;;;;4372605;32;20309;-56
2022/05/12 05:05:47;;;;;;;11.73;5.10;;;;;;;;;;4371961;32;20536;-55
2022/05/12 05:08:14;;;;;;;7.97;5.10;;;;;;;;;;4372139;32;20266;-55
2022/05/12 05:10:40;;;;;;;10.70;5.00;;;;;;;;;;4371939;32;20273;-54
2022/05/12 05:13:05;;;;;;;9.03;4.27;;;;;;;;;;4374140;32;20711;-55
2022/05/12 05:15:31;;;;;;;10.57;5.43;;;;;;;;;;4386316;32;20273;-55
2022/05/12 05:17:57;;;;;;;8.67;4.37;;;;;;;;;;4385002;32;20322;-55
2022/05/12 05:20:26;;;;;;;6.13;4.50;;;;;;;;;;4372367;32;20719;-55
2022/05/12 05:22:51;;;;;;;9.73;4.72;;;;;;;;;;4371621;32;20245;-55
2022/05/12 05:25:17;;;;;;;6.23;4.93;;;;;;;;;;4371390;32;20258;-55
2022/05/12 05:27:43;;;;;;;7.37;5.00;;;;;;;;;;4371266;32;20311;-55
2022/05/12 05:30:11;;;;;;;9.52;4.80;;;;;;;;;;4386074;32;20331;-54
2022/05/12 05:32:37;;;;;;;8.65;6.05;;;;;;;;;;4386124;32;20261;-55
2022/05/12 05:35:04;;;;;;;7.37;4.78;;;;;;;;;;4386837;32;20265;-56
2022/05/12 05:37:29;;;;;;;6.10;4.67;;;;;;;;;;4385862;32;20558;-55
2022/05/12 05:39:55;;;;;;;9.23;4.60;;;;;;;;;;4386277;32;20295;-54
2022/05/12 05:42:21;;;;;;;6.87;4.90;;;;;;;;;;4386795;32;20305;-55
2022/05/12 05:44:47;;;;;;;8.05;4.97;;;;;;;;;;4386829;32;20295;-55
2022/05/12 05:47:12;;;;;;;5.37;4.27;;;;;;;;;;4385957;32;20309;-55
2022/05/12 05:49:38;;;;;;;7.12;4.65;;;;;;;;;;4386678;32;20290;-55
2022/05/12 05:54:50;;;;;;;7.53;4.55;;;;;;;;;;4386945;32;20334;-55
2022/05/12 05:57:22;;;;;;;6.20;4.23;;;;;;;;;;4386532;32;20276;-55
2022/05/12 05:59:48;;;;;;;9.52;4.93;;;;;;;;;;4372648;32;20238;-54
2022/05/12 06:02:13;;;;;;;7.27;4.03;;;;;;;;;;4386966;32;20372;-54
2022/05/12 06:04:39;;;;;;;9.10;4.37;;;;;;;;;;4386908;32;20704;-53
2022/05/12 06:07:05;;;;;;;6.22;4.55;;;;;;;;;;4373453;32;20303;-54
2022/05/12 06:09:30;;;;;;;8.37;4.77;;;;;;;;;;4375053;32;20226;-54
2022/05/12 06:11:56;;;;;;;8.97;4.80;;;;;;;;;;4386573;32;20257;-53
2022/05/12 06:14:21;;;;;;;11.30;5.13;;;;;;;;;;4386187;32;20229;-54
2022/05/12 06:16:48;;;;;;;7.47;5.17;;;;;;;;;;4386956;32;20241;-54
2022/05/12 06:19:13;;;;;;;9.80;4.97;;;;;;;;;;4373680;32;20238;-53
2022/05/12 06:21:38;;;;;;;6.73;4.30;;;;;;;;;;4373945;32;20299;-55
2022/05/12 06:24:04;;;;;;;9.80;6.00;;;;;;;;;;4374279;32;20273;-54
2022/05/12 06:26:30;;;;;;;10.50;4.82;;;;;;;;;;4388998;32;20202;-54
2022/05/12 06:28:57;;;;;;;6.50;4.28;;;;;;;;;;4389300;32;20434;-54
2022/05/12 06:31:29;;;;;;;12.05;4.70;;;;;;;;;;4388877;32;20449;-55
2022/05/12 06:33:56;;;;;;;9.70;4.93;;;;;;;;;;4389259;32;20190;-53
2022/05/12 06:36:22;;;;;;;7.35;5.12;;;;;;;;;;4389013;32;20264;-53
2022/05/12 06:38:48;;;;;;;11.73;4.65;;;;;;;;;;4389010;32;20348;-55
2022/05/12 06:41:14;;;;;;;5.85;3.75;;;;;;;;;;4388979;32;20312;-54
2022/05/12 06:43:45;;;;;;;5.65;4.22;;;;;;;;;;4389347;32;20315;-54
2022/05/12 06:46:12;;;;;;;6.60;4.25;;;;;;;;;;4375472;32;20253;-54
2022/05/12 06:48:38;;;;;;;9.48;7.12;;;;;;;;;;4389360;32;20309;-54
2022/05/12 06:51:03;;;;;;;9.68;4.47;;;;;;;;;;4389606;32;20431;-56
2022/05/12 06:53:29;;;;;;;5.70;3.87;;;;;;;;;;4389449;32;20280;-54
2022/05/12 06:55:55;;;;;;;5.12;4.43;;;;;;;;;;4389274;32;20727;-54
2022/05/12 06:58:20;;;;;;;8.23;4.60;;;;;;;;;;4384622;32;20301;-53
2022/05/12 07:00:46;;;;;;;9.80;4.87;;;;;;;;;;4374046;32;20280;-55
2022/05/12 07:03:13;;;;;;;5.63;4.63;;;;;;;;;;4359999;32;20667;-56
2022/05/12 07:05:40;;;;;;;7.37;5.43;;;;;;;;;;4375358;32;20302;-54
2022/05/12 07:08:07;;;;;;;6.93;4.80;;;;;;;;;;4387821;32;20197;-54
2022/05/12 07:10:33;;;;;;;9.05;4.53;;;;;;;;;;4388075;32;20262;-54
2022/05/12 07:12:58;;;;;;;6.15;4.78;;;;;;;;;;4387172;32;20362;-56
2022/05/12 07:15:27;;;;;;;8.32;4.18;;;;;;;;;;4372926;32;20560;-54
2022/05/12 07:17:55;;;;;;;12.52;4.62;;;;;;;;;;4373368;32;20218;-54
2022/05/12 07:28:35;;;;;;;6.70;4.18;;;;;;;;;;4387666;32;20228;-54
2022/05/12 07:31:01;;;;;;;4.45;3.50;;;;;;;;;;4388272;32;20367;-54
2022/05/12 07:33:32;;;;;;;5.82;3.90;;;;;;;;;;4374593;32;20680;-54
2022/05/12 07:36:00;;;;;;;8.65;3.80;;;;;;;;;;4388418;32;20229;-54
2022/05/12 07:38:25;;;;;;;5.37;3.37;;;;;;;;;;4387960;32;20214;-54
2022/05/12 07:40:51;;;;;;;6.57;3.58;;;;;;;;;;4397788;32;20539;-54
2022/05/12 07:43:17;;;;;;;5.37;3.10;;;;;;;;;;4403074;32;20653;-55
2022/05/12 07:45:43;;;;;;;5.62;3.62;;;;;;;;;;4399994;32;20297;-55
2022/05/12 07:48:10;;;;;;;7.15;4.05;;;;;;;;;;4388534;32;20314;-53
2022/05/12 07:50:35;;;;;;;7.10;4.10;;;;;;;;;;4374559;32;20267;-55
2022/05/12 07:53:01;;;;;;;10.98;4.97;;;;;;;;;;4388093;32;20606;-53
2022/05/12 07:55:27;;;;;;;5.82;3.47;;;;;;;;;;4387780;32;20238;-54
2022/05/12 07:57:52;;;;;;;7.12;4.37;;;;;;;;;;4386233;32;20368;-54
2022/05/12 08:00:18;;;;;;;10.80;4.07;;;;;;;;;;4372429;32;20276;-54
2022/05/12 08:02:44;;;;;;;7.95;4.10;;;;;;;;;;4381103;32;20281;-54
2022/05/12 08:05:10;;;;;;;6.57;3.87;;;;;;;;;;4387048;32;20238;-54
2022/05/12 08:07:35;;;;;;;8.20;3.37;;;;;;;;;;4383844;32;20284;-55
2022/05/12 08:10:02;;;;;;;6.47;3.50;;;;;;;;;;4381751;32;20292;-54
2022/05/12 08:12:28;;;;;;;3.97;3.10;;;;;;;;;;4372883;32;20274;-54
2022/05/12 08:14:54;;;;;;;6.07;3.25;;;;;;;;;;4372496;32;20241;-53
2022/05/12 08:17:19;;;;;;;6.57;3.45;;;;;;;;;;4377492;32;20303;-55
2022/05/12 08:19:45;;;;;;;8.07;3.40;;;;;;;;;;4387313;32;20254;-54
2022/05/12 08:22:10;;;;;;;9.70;3.90;;;;;;;;;;4387874;32;20319;-53
2022/05/12 08:24:36;;;;;;;6.82;3.28;;;;;;;;;;4387807;32;20267;-54
2022/05/12 08:27:02;;;;;;;14.15;4.07;;;;;;;;;;4387445;32;20372;-54
2022/05/12 08:29:28;;;;;;;7.45;4.05;;;;;;;;;;4387825;32;20285;-54
2022/05/12 08:31:53;;;;;;;6.18;3.75;;;;;;;;;;4387687;32;20311;-55
2022/05/12 08:34:19;;;;;;;5.82;3.30;;;;;;;;;;4387545;32;20663;-55
2022/05/12 08:36:44;;;;;;;9.05;3.62;;;;;;;;;;4378801;32;20221;-55
2022/05/12 08:39:10;;;;;;;5.70;3.60;;;;;;;;;;4389789;32;20234;-55
2022/05/12 08:41:42;;;;;;;6.22;3.00;;;;;;;;;;4387876;32;20616;-54
2022/05/12 08:44:18;;;;;;;6.03;3.30;;;;;;;;;;4387737;32;20232;-54
2022/05/12 08:46:53;;;;;;;6.05;3.42;;;;;;;;;;4387012;32;20342;-55
2022/05/12 08:49:23;;;;;;;4.45;2.97;;;;;;;;;;4387878;32;20287;-54
2022/05/12 08:51:59;;;;;;;7.32;3.28;;;;;;;;;;4387202;32;20247;-54
2022/05/12 08:54:26;;;;;;;7.70;3.47;;;;;;;;;;4387160;32;20237;-54
2022/05/12 08:57:05;;;;;;;6.32;3.60;;;;;;;;;;4386865;32;20218;-54
2022/05/12 08:59:32;;;;;;;5.85;3.35;;;;;;;;;;4386619;32;20538;-54
2022/05/12 09:01:58;;;;;;;6.85;2.58;;;;;;;;;;4387405;32;20287;-54
2022/05/12 09:04:52;;;;;;;3.70;2.85;;;;;;;;;;4387690;32;20298;-54
2022/05/12 09:07:29;;;;;;;4.30;3.12;;;;;;;;;;4373210;32;20360;-54
2022/05/12 09:10:33;;;;;;;4.03;2.83;;;;;;;;;;4371288;32;20229;-54
2022/05/12 09:13:25;;;;;;;9.57;3.33;;;;;;;;;;4357521;32;20654;-54
2022/05/12 09:16:05;;;;;;;3.95;2.42;;;;;;;;;;4377574;32;20306;-53
2022/05/12 09:18:33;;;;;;;2.67;2.47;;;;;;;;;;4387739;32;20269;-53
2022/05/12 09:21:18;;;;;;;5.53;3.30;;;;;;;;;;4387387;32;20319;-54
2022/05/12 09:23:44;;;;;;;3.92;2.78;;;;;;;;;;4387220;32;20743;-54
2022/05/12 09:26:50;;;;;;;5.93;2.83;;;;;;;;;;4386840;32;20229;-54
2022/05/12 09:29:19;;;;;;;8.30;5.10;;;;;;;;;;4311107;33;20298;-53
2022/05/12 09:31:51;;;;;;;14.35;6.03;;;;;;;;;;4311844;33;20261;-55
2022/05/12 09:34:33;;;;;;;23.15;10.20;;;;;;;;;;4355599;32;20226;-54
2022/05/12 09:37:16;;;;;;;22.62;11.55;;;;;;;;;;4386976;32;20616;-54
2022/05/12 09:39:45;;;;;;;19.62;11.10;;;;;;;;;;4371559;32;20309;-53
2022/05/12 09:42:27;;;;;;;14.60;5.25;;;;;;;;;;4371278;32;20321;-55
2022/05/12 09:44:56;;;;;;;5.82;3.50;;;;;;;;;;4357961;32;20361;-54
2022/05/12 09:47:22;;;;;;;12.95;6.10;;;;;;;;;;4371889;32;20632;-54
2022/05/12 09:49:48;;;;;;;10.18;4.95;;;;;;;;;;4370948;32;20218;-53
2022/05/12 09:52:37;;;;;;;6.12;4.00;;;;;;;;;;4384877;32;20652;-54
2022/05/12 09:55:14;;;;;;;10.23;5.50;;;;;;;;;;4389731;32;20317;-55
2022/05/12 09:58:04;;;;;;;4.32;3.53;;;;;;;;;;4388989;32;20211;-53
2022/05/12 10:00:39;;;;;;;3.80;2.83;;;;;;;;;;4387754;32;20234;-54
2022/05/12 10:09:20;;;;;;;6.65;3.95;;;;;;;;;;4389704;32;20320;-54
2022/05/12 10:12:06;;;;;;;5.07;3.42;;;;;;;;;;4389832;32;20402;-54
2022/05/12 10:14:54;;;;;;;5.47;3.05;;;;;;;;;;4389791;32;20221;-54
2022/05/12 10:17:43;;;;;;;5.00;2.70;;;;;;;;;;4389250;32;20248;-53
2022/05/12 10:20:13;;;;;;;3.67;2.62;;;;;;;;;;4389286;32;20233;-54
2022/05/12 10:22:47;;;;;;;9.55;3.53;;;;;;;;;;4389706;32;20649;-54
2022/05/12 10:25:21;;;;;;;4.30;3.08;;;;;;;;;;4389962;32;20293;-54
2022/05/12 10:28:02;;;;;;;6.07;3.33;;;;;;;;;;4389572;32;20262;-53
2022/05/12 10:31:03;;;;;;;3.87;3.08;;;;;;;;;;4375317;32;20259;-54
2022/05/12 10:33:38;;;;;;;6.18;2.78;;;;;;;;;;4369866;32;20255;-55
2022/05/12 10:36:06;;;;;;;5.80;3.28;;;;;;;;;;4389223;32;20630;-54
2022/05/12 10:38:34;;;;;;;4.00;2.87;;;;;;;;;;4388972;32;20240;-53
2022/05/12 10:41:08;;;;;;;6.28;3.10;;;;;;;;;;4389782;32;20336;-54
2022/05/12 10:43:47;;;;;;;5.10;2.80;;;;;;;;;;4375688;32;20510;-53
2022/05/12 10:46:29;;;;;;;3.20;2.58;;;;;;;;;;4373965;32;20350;-53
2022/05/12 10:49:03;;;;;;;4.25;2.90;;;;;;;;;;4374459;32;20627;-54
2022/05/12 10:51:43;;;;;;;4.05;2.60;;;;;;;;;;4382629;32;20645;-53
2022/05/12 10:54:43;;;;;;;3.65;2.65;;;;;;;;;;4389621;32;20370;-52
2022/05/12 10:57:26;;;;;;;6.72;2.67;;;;;;;;;;4389593;32;20567;-53
2022/05/12 11:00:04;;;;;;;5.40;2.30;;;;;;;;;;4388021;32;20340;-54
2022/05/12 11:02:43;;;;;;;5.82;2.83;;;;;;;;;;4389138;32;20271;-53
2022/05/12 11:05:21;;;;;;;8.00;2.65;;;;;;;;;;4388872;32;20225;-53
2022/05/12 11:07:57;;;;;;;6.30;2.55;;;;;;;;;;4388942;32;20299;-53
2022/05/12 11:10:38;;;;;;;3.28;2.53;;;;;;;;;;4389643;32;20418;-54
2022/05/12 11:13:11;;;;;;;4.70;2.25;;;;;;;;;;4389215;32;20281;-52
2022/05/12 11:15:45;;;;;;;3.03;2.50;;;;;;;;;;4388814;32;20245;-52
2022/05/12 11:18:19;;;;;;;4.25;2.83;;;;;;;;;;4389026;32;20282;-52
2022/05/12 11:20:55;;;;;;;9.00;2.75;;;;;;;;;;4389023;32;20234;-54
2022/05/12 11:23:42;;;;;;;4.55;2.60;;;;;;;;;;4389192;32;20595;-55
2022/05/12 11:26:51;;;;;;;9.10;2.83;;;;;;;;;;4388524;32;20268;-53
2022/05/12 11:32:21;;;;;;;4.85;2.80;;;;;;;;;;4388893;32;20302;-53
2022/05/12 11:35:00;;;;;;;7.93;2.25;;;;;;;;;;4389066;32;20267;-53
2022/05/12 11:37:34;;;;;;;7.57;2.53;;;;;;;;;;4389221;32;20206;-53
2022/05/12 11:40:12;;;;;;;3.87;2.60;;;;;;;;;;4373952;32;20355;-53
2022/05/12 11:45:43;;;;;;;3.00;2.05;;;;;;;;;;4374189;32;20326;-53
2022/05/12 11:49:04;;;;;;;4.97;2.37;;;;;;;;;;4385168;32;20264;-53
2022/05/12 11:51:54;;;;;;;4.47;2.62;;;;;;;;;;4330935;32;20312;-54
2022/05/12 11:54:30;;;;;;;8.98;3.20;;;;;;;;;;4388969;32;20221;-53
2022/05/12 11:56:57;;;;;;;4.45;2.50;;;;;;;;;;4389064;32;20243;-53
2022/05/12 11:59:25;;;;;;;3.00;2.42;;;;;;;;;;4377124;32;20626;-53
2022/05/12 12:01:57;;;;;;;5.32;2.15;;;;;;;;;;4375118;32;20218;-54
2022/05/12 12:04:44;;;;;;;5.20;2.40;;;;;;;;;;4388752;32;20210;-54
2022/05/12 12:07:31;;;;;;;9.20;3.15;;;;;;;;;;4374933;32;20233;-54
2022/05/12 12:10:27;;;;;;;4.45;2.58;;;;;;;;;;4373077;32;20222;-54
2022/05/12 12:13:15;;;;;;;5.65;2.50;;;;;;;;;;4373002;32;20215;-54
2022/05/12 12:15:56;;;;;;;10.95;3.37;;;;;;;;;;4373521;32;20250;-53
2022/05/12 12:18:22;;;;;;;4.57;2.15;;;;;;;;;;4373278;32;20598;-54
2022/05/12 12:20:57;;;;;;;9.32;2.62;;;;;;;;;;4374394;32;20226;-54
2022/05/12 12:23:30;;;;;;;4.30;2.47;;;;;;;;;;4388382;32;20236;-54
2022/05/12 12:26:10;;;;;;;3.58;2.05;;;;;;;;;;4388526;32;20253;-54
2022/05/12 12:28:58;;;;;;;3.08;2.30;;;;;;;;;;4388914;32;20202;-52
2022/05/12 12:31:34;;;;;;;5.00;2.20;;;;;;;;;;4388165;32;20253;-52
2022/05/12 12:34:13;;;;;;;9.52;3.50;;;;;;;;;;4387182;32;20236;-53
2022/05/12 12:36:53;;;;;;;4.22;2.55;;;;;;;;;;4373551;32;20217;-54
2022/05/12 12:39:29;;;;;;;3.92;2.70;;;;;;;;;;4386981;32;20657;-54
2022/05/12 12:42:16;;;;;;;3.33;1.83;;;;;;;;;;4388787;32;20228;-55
2022/05/12 12:44:50;;;;;;;10.25;2.47;;;;;;;;;;4388510;32;20245;-55
2022/05/12 12:47:26;;;;;;;3.08;2.28;;;;;;;;;;4388941;32;20189;-55
2022/05/12 12:50:18;;;;;;;5.12;2.53;;;;;;;;;;4388910;32;20235;-54
2022/05/12 12:52:47;;;;;;;5.28;2.60;;;;;;;;;;4388356;32;20281;-55
2022/05/12 12:58:35;;;;;;;4.80;2.45;;;;;;;;;;4387620;32;20271;-54
2022/05/12 13:01:19;;;;;;;8.30;2.83;;;;;;;;;;4388422;32;20229;-54
2022/05/12 13:03:48;;;;;;;3.30;2.60;;;;;;;;;;4387996;32;20323;-54
2022/05/12 13:06:24;;;;;;;4.22;2.35;;;;;;;;;;4388362;32;20304;-54
2022/05/12 13:09:04;;;;;;;4.35;2.67;;;;;;;;;;4388089;32;20380;-54
2022/05/12 13:11:30;;;;;;;7.72;2.53;;;;;;;;;;4387733;32;20205;-53
2022/05/12 13:13:56;;;;;;;4.05;2.65;;;;;;;;;;4387746;32;20323;-53
2022/05/12 13:16:25;;;;;;;11.40;2.08;;;;;;;;;;4388197;32;20293;-54
2022/05/12 13:18:53;;;;;;;5.12;2.45;;;;;;;;;;4400808;32;20280;-55
2022/05/12 13:21:21;;;;;;;3.37;2.08;;;;;;;;;;4404284;32;20216;-53
2022/05/12 13:24:02;;;;;;;5.97;2.12;;;;;;;;;;4402981;32;20280;-54
2022/05/12 13:26:28;;;;;;;3.55;2.20;;;;;;;;;;4392178;32;20205;-54
2022/05/12 13:28:54;;;;;;;3.67;2.60;;;;;;;;;;4406342;32;20288;-53
2022/05/12 13:31:23;;;;;;;4.22;2.55;;;;;;;;;;4390769;32;20244;-54
2022/05/12 13:34:24;;;;;;;4.72;2.37;;;;;;;;;;4390985;32;20316;-53
2022/05/12 13:36:55;;;;;;;14.93;2.10;;;;;;;;;;4390937;32;20220;-53
2022/05/12 13:39:49;;;;;;;3.00;2.05;;;;;;;;;;4390703;32;20238;-53
2022/05/12 13:42:26;;;;;;;7.20;3.33;;;;;;;;;;4390951;32;20213;-54
2022/05/12 13:44:58;;;;;;;4.30;2.17;;;;;;;;;;4391028;32;20253;-53
2022/05/12 13:47:51;;;;;;;2.85;2.47;;;;;;;;;;4390234;32;20255;-55
2022/05/12 13:50:18;;;;;;;3.12;2.15;;;;;;;;;;4390624;32;20229;-55
2022/05/12 13:52:52;;;;;;;2.58;1.95;;;;;;;;;;4390679;32;20715;-54
2022/05/12 13:55:22;;;;;;;7.57;2.10;;;;;;;;;;4390573;32;20217;-54
2022/05/12 13:57:55;;;;;;;3.12;2.30;;;;;;;;;;4388715;32;20213;-54
2022/05/12 14:00:34;;;;;;;3.22;2.28;;;;;;;;;;4375200;32;20218;-54
2022/05/12 14:03:23;;;;;;;7.22;2.35;;;;;;;;;;4383883;32;20217;-55
2022/05/12 14:05:57;;;;;;;3.65;2.30;;;;;;;;;;4390033;32;20261;-54
2022/05/12 14:08:33;;;;;;;12.70;2.70;;;;;;;;;;4390483;32;20644;-55
2022/05/12 14:11:01;;;;;;;11.50;2.95;;;;;;;;;;4390854;32;20650;-54
2022/05/12 14:19:15;;;;;;;7.00;2.15;;;;;;;;;;4390794;32;20654;-54
2022/05/12 14:21:53;;;;;;;5.53;2.42;;;;;;;;;;4390185;32;20236;-54
2022/05/12 14:24:20;;;;;;;4.82;2.55;;;;;;;;;;4391073;32;20220;-54
2022/05/12 14:26:47;;;;;;;4.15;2.37;;;;;;;;;;4387892;32;20241;-54
2022/05/12 14:29:13;;;;;;;5.22;2.72;;;;;;;;;;4375812;32;20325;-53
2022/05/12 14:31:40;;;;;;;9.82;2.50;;;;;;;;;;4377061;32;20512;-54
2022/05/12 14:34:07;;;;;;;6.35;2.37;;;;;;;;;;4390607;32;20286;-54
2022/05/12 14:36:33;;;;;;;6.12;2.83;;;;;;;;;;4389772;32;20656;-54
2022/05/12 14:38:58;;;;;;;7.35;2.53;;;;;;;;;;4390220;32;20313;-54
2022/05/12 14:41:25;;;;;;;8.13;2.47;;;;;;;;;;4390126;32;20269;-54
2022/05/12 14:43:50;;;;;;;3.25;2.40;;;;;;;;;;4390362;32;20281;-54
2022/05/12 14:46:17;;;;;;;6.57;2.08;;;;;;;;;;4390014;32;20202;-54
2022/05/12 14:48:45;;;;;;;3.45;2.40;;;;;;;;;;4390520;32;20285;-54
2022/05/12 14:51:12;;;;;;;3.00;2.03;;;;;;;;;;4389717;32;20601;-54
2022/05/12 14:53:39;;;;;;;6.22;2.58;;;;;;;;;;4389951;32;20602;-55
2022/05/12 14:56:05;;;;;;;7.50;2.80;;;;;;;;;;4389937;32;20284;-55
2022/05/12 14:58:31;;;;;;;4.30;3.33;;;;;;;;;;4389758;32;20218;-54
2022/05/12 15:00:57;;;;;;;3.78;1.90;;;;;;;;;;4389747;32;20496;-54
2022/05/12 15:03:22;;;;;;;4.75;2.35;;;;;;;;;;4389839;32;20305;-55
2022/05/12 15:05:48;;;;;;;4.53;2.65;;;;;;;;;;4384701;32;20221;-54
2022/05/12 15:08:13;;;;;;;4.35;2.95;;;;;;;;;;4375166;32;20304;-54
2022/05/12 15:10:39;;;;;;;8.52;3.03;;;;;;;;;;4384448;32;20260;-54
2022/05/12 15:13:04;;;;;;;3.35;2.62;;;;;;;;;;4389725;32;20218;-55
2022/05/12 15:15:32;;;;;;;8.75;2.47;;;;;;;;;;4390047;32;20331;-54
2022/05/12 15:17:58;;;;;;;6.60;3.00;;;;;;;;;;4388531;32;20685;-55
2022/05/12 15:20:24;;;;;;;7.50;2.83;;;;;;;;;;4397714;32;20292;-55
2022/05/12 15:22:51;;;;;;;4.85;2.62;;;;;;;;;;4401971;32;20594;-57
2022/05/12 15:25:18;;;;;;;8.93;2.75;;;;;;;;;;4374134;32;20288;-55
2022/05/12 15:27:49;;;;;;;4.37;2.70;;;;;;;;;;4374182;32;20352;-57
2022/05/12 15:30:17;;;;;;;9.88;2.72;;;;;;;;;;4360722;32;20309;-54
2022/05/12 15:32:43;;;;;;;5.95;3.30;;;;;;;;;;4382371;32;20236;-54
2022/05/12 15:35:10;;;;;;;12.75;4.37;;;;;;;;;;4389014;32;20695;-54